Time;durP1;ratioP1;P1;durP2;ratioP2;P2;SDS_P1;SDS_P2;PMS_P1;PMS_P2;Temp;Humidity;BMP_temperature;BMP_pressure;BME280_temperature;BME280_humidity;BME280_pressure;Samples;Min_cycle;Max_cycle;Signal;HPM_P1;HPM_P2
2023/04/26 00:01:15;;;;;;;;;;;5.30;76.60;;;;;;4998657;28;19918;-84
2023/04/26 00:03:41;;;;;;;;;;;5.10;76.80;;;;;;5006724;28;20282;-85
2023/04/26 00:06:08;;;;;;;;;;;5.10;77.40;;;;;;5006471;28;19914;-84
2023/04/26 00:08:34;;;;;;;;;;;5.10;77.30;;;;;;5006326;28;19956;-84
2023/04/26 00:11:00;;;;;;;;;;;5.20;77.30;;;;;;4995645;28;19921;-84
2023/04/26 00:13:26;;;;;;;;;;;5.20;76.70;;;;;;5005460;28;20402;-84
2023/04/26 00:15:51;;;;;;;;;;;5.20;76.20;;;;;;5006882;28;20452;-84
2023/04/26 00:18:17;;;;;;;;;;;5.20;76.20;;;;;;5010189;28;20004;-84
2023/04/26 00:20:42;;;;;;;;;;;5.10;75.80;;;;;;5003528;28;20385;-84
2023/04/26 00:23:09;;;;;;;;;;;5.10;76.60;;;;;;5006025;28;19914;-84
2023/04/26 00:25:35;;;;;;;;;;;5.00;77.50;;;;;;5010249;28;19991;-83
2023/04/26 00:28:01;;;;;;;;;;;5.10;77.60;;;;;;5011345;28;20369;-84
2023/04/26 00:30:26;;;;;;;;;;;5.00;77.20;;;;;;5011890;28;19940;-84
2023/04/26 00:32:52;;;;;;;;;;;5.10;77.00;;;;;;5007084;28;19916;-84
2023/04/26 00:35:17;;;;;;;;;;;5.00;77.00;;;;;;5013113;28;19921;-84
2023/04/26 00:37:43;;;;;;;;;;;5.00;77.00;;;;;;5013541;28;19919;-84
2023/04/26 00:40:09;;;;;;;;;;;4.90;77.60;;;;;;5013878;28;19913;-84
2023/04/26 00:42:34;;;;;;;;;;;4.70;78.30;;;;;;5012391;28;19920;-84
2023/04/26 00:45:00;;;;;;;;;;;4.70;78.90;;;;;;5013971;28;19913;-84
2023/04/26 00:47:28;;;;;;;;;;;4.70;78.90;;;;;;5014304;28;20297;-84
2023/04/26 00:49:53;;;;;;;;;;;4.80;79.10;;;;;;5013519;28;19921;-83
2023/04/26 00:52:19;;;;;;;;;;;4.80;78.40;;;;;;5006774;28;19936;-83
2023/04/26 00:54:46;;;;;;;;;;;4.70;78.30;;;;;;5016517;28;19914;-84
2023/04/26 00:57:11;;;;;;;;;;;4.80;78.20;;;;;;5011884;28;19914;-85
2023/04/26 00:59:37;;;;;;;;;;;4.70;77.80;;;;;;5018968;28;19917;-83
2023/04/26 01:02:02;;;;;;;;;;;4.70;78.60;;;;;;5023484;28;19925;-83
2023/04/26 01:04:29;;;;;;;;;;;4.80;78.10;;;;;;5040528;28;19956;-83
2023/04/26 01:06:54;;;;;;;;;;;4.80;78.50;;;;;;5027387;28;19951;-83
2023/04/26 01:09:20;;;;;;;;;;;4.80;78.40;;;;;;5016001;28;20410;-84
2023/04/26 01:11:46;;;;;;;;;;;4.70;78.50;;;;;;5006481;28;20076;-84
2023/04/26 01:14:12;;;;;;;;;;;4.60;79.20;;;;;;5020921;28;20001;-84
2023/04/26 01:16:39;;;;;;;;;;;4.70;78.70;;;;;;5013523;28;19928;-84
2023/04/26 01:19:11;;;;;;;;;;;4.60;78.90;;;;;;5013500;28;19940;-83
2023/04/26 01:21:36;;;;;;;;;;;4.60;78.40;;;;;;5009285;28;19918;-84
2023/04/26 01:24:02;;;;;;;;;;;4.60;78.30;;;;;;5005308;28;19925;-84
2023/04/26 01:26:28;;;;;;;;;;;4.70;78.20;;;;;;5011179;28;19924;-84
2023/04/26 01:28:53;;;;;;;;;;;4.60;78.50;;;;;;5009437;28;19976;-83
2023/04/26 01:31:19;;;;;;;;;;;4.60;78.20;;;;;;5004898;28;20373;-83
2023/04/26 01:33:45;;;;;;;;;;;4.60;78.20;;;;;;5015804;28;19956;-83
2023/04/26 01:36:10;;;;;;;;;;;4.60;78.90;;;;;;5000706;28;19913;-84
2023/04/26 01:38:36;;;;;;;;;;;4.30;79.30;;;;;;5007723;28;19918;-83
2023/04/26 01:41:02;;;;;;;;;;;4.30;80.10;;;;;;5001829;28;19972;-83
2023/04/26 01:43:27;;;;;;;;;;;4.30;80.00;;;;;;5006880;28;19918;-84
2023/04/26 01:45:53;;;;;;;;;;;4.30;79.90;;;;;;5005303;28;20397;-83
2023/04/26 01:48:18;;;;;;;;;;;4.30;80.00;;;;;;5007873;28;20420;-83
2023/04/26 01:50:44;;;;;;;;;;;4.20;80.20;;;;;;5010174;28;19968;-84
2023/04/26 01:53:10;;;;;;;;;;;4.10;80.40;;;;;;5000713;28;19920;-84
2023/04/26 01:55:35;;;;;;;;;;;4.10;81.20;;;;;;5001763;28;19953;-84
2023/04/26 01:58:01;;;;;;;;;;;4.30;80.60;;;;;;4999535;28;19928;-84
2023/04/26 02:00:27;;;;;;;;;;;4.30;80.40;;;;;;5012559;28;20772;-84
2023/04/26 02:02:53;;;;;;;;;;;4.30;80.60;;;;;;5009968;28;19956;-84
2023/04/26 02:05:19;;;;;;;;;;;4.50;79.30;;;;;;5008932;28;19921;-83
2023/04/26 02:07:44;;;;;;;;;;;4.50;79.00;;;;;;5006743;28;20369;-83
2023/04/26 02:10:09;;;;;;;;;;;4.40;79.40;;;;;;5006368;28;19964;-83
2023/04/26 02:12:35;;;;;;;;;;;4.40;79.30;;;;;;5000955;28;20368;-82
2023/04/26 02:15:00;;;;;;;;;;;4.20;79.40;;;;;;5012248;28;19948;-84
2023/04/26 02:17:28;;;;;;;;;;;4.20;80.20;;;;;;5010143;28;19914;-84
2023/04/26 02:19:53;;;;;;;;;;;4.20;80.20;;;;;;5004674;28;19921;-84
2023/04/26 02:22:22;;;;;;;;;;;4.20;80.20;;;;;;5004096;28;20371;-82
2023/04/26 02:24:48;;;;;;;;;;;4.20;80.20;;;;;;5012922;28;19925;-84
2023/04/26 02:27:14;;;;;;;;;;;4.20;80.40;;;;;;5008953;28;19937;-83
2023/04/26 02:29:39;;;;;;;;;;;4.10;79.90;;;;;;5002821;28;19918;-84
2023/04/26 02:32:05;;;;;;;;;;;4.20;79.60;;;;;;5014525;28;19914;-84
2023/04/26 02:34:30;;;;;;;;;;;4.10;79.50;;;;;;5012480;28;20001;-84
2023/04/26 02:36:56;;;;;;;;;;;4.10;79.40;;;;;;5006195;28;19933;-83
2023/04/26 02:39:21;;;;;;;;;;;4.10;80.40;;;;;;5008899;28;19921;-84
2023/04/26 02:41:59;;;;;;;;;;;4.00;80.50;;;;;;5009030;28;19914;-84
2023/04/26 02:44:28;;;;;;;;;;;3.90;81.10;;;;;;5016538;28;19919;-85
2023/04/26 02:46:53;;;;;;;;;;;4.00;81.20;;;;;;5008865;28;20349;-84
2023/04/26 02:49:19;;;;;;;;;;;4.00;80.70;;;;;;5014659;28;19921;-85
2023/04/26 02:51:44;;;;;;;;;;;4.00;80.80;;;;;;5007076;28;19925;-85
2023/04/26 02:54:09;;;;;;;;;;;4.10;80.20;;;;;;5013028;28;19913;-84
2023/04/26 02:56:35;;;;;;;;;;;4.10;79.40;;;;;;5000340;28;19914;-84
2023/04/26 02:59:01;;;;;;;;;;;4.10;79.40;;;;;;5010961;28;19913;-85
2023/04/26 03:01:26;;;;;;;;;;;4.00;79.70;;;;;;5015177;28;20424;-85
2023/04/26 03:03:52;;;;;;;;;;;4.00;80.20;;;;;;5004923;28;19914;-85
2023/04/26 03:06:18;;;;;;;;;;;3.90;80.50;;;;;;5010006;28;19913;-85
2023/04/26 03:08:43;;;;;;;;;;;3.90;80.40;;;;;;5012866;28;19925;-85
2023/04/26 03:11:09;;;;;;;;;;;3.80;81.00;;;;;;5007753;28;19913;-85
2023/04/26 03:13:35;;;;;;;;;;;3.80;81.00;;;;;;5012232;28;19913;-86
2023/04/26 03:16:00;;;;;;;;;;;3.80;80.80;;;;;;5004949;28;20277;-86
2023/04/26 03:18:26;;;;;;;;;;;3.80;81.10;;;;;;5010508;28;19913;-86
2023/04/26 03:20:51;;;;;;;;;;;3.80;81.50;;;;;;5006792;28;20000;-85
2023/04/26 03:23:17;;;;;;;;;;;3.80;81.50;;;;;;5001178;28;19921;-85
2023/04/26 03:25:42;;;;;;;;;;;3.70;82.00;;;;;;5027537;28;20340;-85
2023/04/26 03:28:08;;;;;;;;;;;3.90;82.20;;;;;;5004984;28;20281;-84
2023/04/26 03:30:33;;;;;;;;;;;3.80;82.00;;;;;;5008127;28;19924;-85
2023/04/26 03:32:59;;;;;;;;;;;3.80;81.70;;;;;;5005233;28;19922;-84
2023/04/26 03:35:25;;;;;;;;;;;3.90;81.10;;;;;;5008281;28;19914;-82
2023/04/26 03:37:50;;;;;;;;;;;3.80;81.50;;;;;;5005000;28;19921;-82
2023/04/26 03:40:16;;;;;;;;;;;3.80;82.00;;;;;;5004572;28;19917;-83
2023/04/26 03:42:41;;;;;;;;;;;3.80;82.00;;;;;;5005877;28;19913;-83
2023/04/26 03:45:07;;;;;;;;;;;3.80;81.90;;;;;;5009554;28;19968;-84
2023/04/26 03:47:32;;;;;;;;;;;3.90;81.90;;;;;;5003938;28;19942;-83
2023/04/26 03:49:58;;;;;;;;;;;3.90;81.40;;;;;;5009342;28;19952;-83
2023/04/26 03:52:23;;;;;;;;;;;3.90;81.20;;;;;;5007347;28;19960;-83
2023/04/26 03:54:49;;;;;;;;;;;3.80;81.10;;;;;;5005010;28;19922;-83
2023/04/26 03:57:15;;;;;;;;;;;3.70;81.10;;;;;;5003371;28;19932;-83
2023/04/26 03:59:40;;;;;;;;;;;3.70;80.70;;;;;;5007622;28;19918;-80
2023/04/26 04:02:06;;;;;;;;;;;3.60;81.40;;;;;;4999273;28;19992;-81
2023/04/26 04:04:31;;;;;;;;;;;3.60;81.90;;;;;;5016387;28;20305;-82
2023/04/26 04:06:57;;;;;;;;;;;3.60;82.50;;;;;;5001776;28;20000;-81
2023/04/26 04:09:23;;;;;;;;;;;3.60;82.30;;;;;;4998939;28;20021;-81
2023/04/26 04:11:48;;;;;;;;;;;3.60;82.20;;;;;;5021820;28;19957;-81
2023/04/26 04:14:14;;;;;;;;;;;3.60;82.30;;;;;;4997823;28;19918;-81
2023/04/26 04:16:39;;;;;;;;;;;3.60;82.00;;;;;;5000526;28;19920;-80
2023/04/26 04:19:05;;;;;;;;;;;3.50;81.60;;;;;;5005759;28;19913;-81
2023/04/26 04:21:30;;;;;;;;;;;3.50;81.70;;;;;;4999331;28;19949;-82
2023/04/26 04:23:56;;;;;;;;;;;3.50;81.70;;;;;;5005321;28;19917;-82
2023/04/26 04:26:22;;;;;;;;;;;3.40;82.10;;;;;;5007544;28;19940;-81
2023/04/26 04:28:47;;;;;;;;;;;3.50;82.30;;;;;;5003745;28;19922;-82
2023/04/26 04:31:13;;;;;;;;;;;3.50;82.40;;;;;;4996334;28;19918;-83
2023/04/26 04:33:38;;;;;;;;;;;3.60;82.10;;;;;;5005383;28;19925;-82
2023/04/26 04:36:05;;;;;;;;;;;3.60;81.50;;;;;;5003693;28;20016;-82
2023/04/26 04:38:31;;;;;;;;;;;3.60;81.70;;;;;;5003845;28;20418;-81
2023/04/26 04:40:57;;;;;;;;;;;3.70;81.90;;;;;;5010396;28;19944;-82
2023/04/26 04:43:22;;;;;;;;;;;3.70;81.60;;;;;;5010849;28;19913;-85
2023/04/26 04:45:48;;;;;;;;;;;3.70;82.40;;;;;;5007311;28;20400;-85
2023/04/26 04:48:14;;;;;;;;;;;3.70;82.30;;;;;;5005136;28;19987;-88
2023/04/26 04:50:40;;;;;;;;;;;3.80;83.00;;;;;;5011818;28;19937;-86
2023/04/26 04:53:07;;;;;;;;;;;3.70;82.60;;;;;;5007717;28;19956;-86
2023/04/26 04:55:33;;;;;;;;;;;3.70;82.90;;;;;;5005391;28;19920;-87
2023/04/26 04:58:01;;;;;;;;;;;3.80;82.90;;;;;;5005421;28;20004;-87
2023/04/26 05:00:33;;;;;;;;;;;3.80;82.60;;;;;;5004929;28;20352;-92
2023/04/26 05:02:58;;;;;;;;;;;3.80;82.90;;;;;;5010780;28;19901;-86
2023/04/26 05:05:23;;;;;;;;;;;3.80;82.70;;;;;;5027766;28;19917;-88
2023/04/26 05:07:49;;;;;;;;;;;3.80;82.60;;;;;;5029739;28;19920;-89
2023/04/26 05:10:15;;;;;;;;;;;4.00;83.10;;;;;;5015911;28;19987;-86
2023/04/26 05:12:40;;;;;;;;;;;4.10;82.70;;;;;;5020427;28;20373;-86
2023/04/26 05:15:06;;;;;;;;;;;4.30;82.40;;;;;;5013086;28;19928;-81
2023/04/26 05:17:32;;;;;;;;;;;4.50;82.10;;;;;;4989254;28;19914;-86
2023/04/26 05:19:57;;;;;;;;;;;4.60;81.60;;;;;;5000475;28;19914;-85
2023/04/26 05:22:23;;;;;;;;;;;4.60;81.30;;;;;;5000655;28;19917;-84
2023/04/26 05:24:48;;;;;;;;;;;4.60;80.70;;;;;;5016802;23;19930;-92
2023/04/26 05:27:14;;;;;;;;;;;4.60;80.50;;;;;;4987609;28;20008;-89
2023/04/26 05:29:42;;;;;;;;;;;4.60;80.20;;;;;;5003405;28;19926;-90
2023/04/26 05:32:08;;;;;;;;;;;4.60;81.00;;;;;;4991081;28;19914;-90
2023/04/26 05:34:33;;;;;;;;;;;4.60;80.70;;;;;;5000183;28;19940;-88
2023/04/26 05:37:02;;;;;;;;;;;4.60;81.10;;;;;;4993635;28;19937;-90
2023/04/26 05:39:57;;;;;;;;;;;4.60;80.80;;;;;;4990067;28;19941;-90
2023/04/26 05:42:22;;;;;;;;;;;4.70;80.60;;;;;;5009693;28;19914;-91
2023/04/26 05:44:48;;;;;;;;;;;5.10;80.30;;;;;;4992038;28;19977;-89
2023/04/26 05:47:14;;;;;;;;;;;5.70;79.30;;;;;;5006119;28;19913;-89
2023/04/26 05:49:40;;;;;;;;;;;6.10;77.50;;;;;;5006818;28;19937;-89
2023/04/26 05:52:05;;;;;;;;;;;6.80;75.60;;;;;;5008522;28;19914;-89
2023/04/26 05:54:31;;;;;;;;;;;7.50;72.80;;;;;;5027154;28;20035;-90
2023/04/26 05:56:56;;;;;;;;;;;7.90;71.10;;;;;;5025481;28;19917;-90
2023/04/26 05:59:22;;;;;;;;;;;8.60;68.80;;;;;;4992082;28;20348;-90
2023/04/26 06:01:47;;;;;;;;;;;8.90;67.40;;;;;;5005638;28;19913;-90
2023/04/26 06:04:12;;;;;;;;;;;8.40;67.70;;;;;;5022778;28;19952;-90
2023/04/26 06:06:38;;;;;;;;;;;7.80;69.30;;;;;;5031121;28;19952;-90
2023/04/26 06:09:03;;;;;;;;;;;7.60;70.30;;;;;;5030828;28;19913;-90
2023/04/26 06:11:29;;;;;;;;;;;7.60;70.60;;;;;;5010837;28;19914;-90
2023/04/26 06:13:55;;;;;;;;;;;7.90;70.50;;;;;;5016044;28;19927;-90
2023/04/26 06:16:21;;;;;;;;;;;8.50;68.60;;;;;;5030156;28;19940;-90
2023/04/26 06:18:46;;;;;;;;;;;8.50;68.00;;;;;;5024161;28;19921;-90
2023/04/26 06:21:12;;;;;;;;;;;8.20;68.50;;;;;;5021126;28;19988;-90
2023/04/26 06:23:37;;;;;;;;;;;7.70;70.20;;;;;;5009420;28;19910;-90
2023/04/26 06:26:03;;;;;;;;;;;7.30;71.40;;;;;;5038442;28;19961;-91
2023/04/26 06:28:28;;;;;;;;;;;6.90;73.00;;;;;;5019927;28;19925;-91
2023/04/26 06:30:54;;;;;;;;;;;6.80;74.20;;;;;;5022814;28;19939;-91
2023/04/26 06:33:19;;;;;;;;;;;6.60;74.80;;;;;;5022171;28;19960;-91
2023/04/26 06:35:45;;;;;;;;;;;6.50;75.40;;;;;;5020770;28;20056;-91
2023/04/26 06:38:14;;;;;;;;;;;6.50;75.60;;;;;;4992734;28;20031;-91
2023/04/26 06:40:39;;;;;;;;;;;6.40;75.60;;;;;;5007370;28;20012;-91
2023/04/26 06:43:05;;;;;;;;;;;6.50;75.70;;;;;;4993455;28;19969;-88
2023/04/26 06:45:31;;;;;;;;;;;6.50;75.90;;;;;;5000778;28;20444;-90
2023/04/26 06:47:56;;;;;;;;;;;6.60;76.50;;;;;;4995658;28;20339;-90
2023/04/26 06:50:25;;;;;;;;;;;6.50;76.00;;;;;;5008990;28;19929;-90
2023/04/26 06:53:02;;;;;;;;;;;6.50;76.50;;;;;;5007291;28;19914;-91
2023/04/26 06:55:28;;;;;;;;;;;6.70;75.00;;;;;;5009544;28;19921;-88
2023/04/26 06:58:04;;;;;;;;;;;6.70;75.20;;;;;;5002113;28;21361;-90
2023/04/26 07:00:29;;;;;;;;;;;6.70;75.00;;;;;;4988374;28;19918;-89
2023/04/26 07:02:57;;;;;;;;;;;6.90;74.90;;;;;;4990651;28;19921;-91
2023/04/26 07:05:23;;;;;;;;;;;7.00;74.00;;;;;;4994875;28;19921;-91
2023/04/26 07:07:49;;;;;;;;;;;7.10;73.90;;;;;;4994025;28;20242;-90
2023/04/26 07:10:15;;;;;;;;;;;7.30;73.10;;;;;;4985791;28;20321;-90
2023/04/26 07:12:40;;;;;;;;;;;7.50;72.20;;;;;;5004992;28;19914;-91
2023/04/26 07:15:08;;;;;;;;;;;7.50;71.30;;;;;;5002047;28;19914;-90
2023/04/26 07:17:37;;;;;;;;;;;7.50;71.70;;;;;;4988442;28;20256;-91
2023/04/26 07:20:03;;;;;;;;;;;7.50;71.60;;;;;;4992281;28;19920;-91
2023/04/26 07:22:28;;;;;;;;;;;7.60;71.00;;;;;;5004045;28;20044;-91
2023/04/26 07:24:54;;;;;;;;;;;7.80;69.50;;;;;;4983564;28;20068;-91
2023/04/26 07:27:20;;;;;;;;;;;7.70;68.80;;;;;;5008220;28;19913;-89
2023/04/26 07:29:45;;;;;;;;;;;7.80;68.90;;;;;;5008805;28;19960;-90
2023/04/26 07:32:15;;;;;;;;;;;7.70;66.40;;;;;;5029660;28;19909;-91
2023/04/26 07:34:40;;;;;;;;;;;7.90;66.50;;;;;;5000727;28;19917;-91
2023/04/26 07:37:06;;;;;;;;;;;7.70;65.90;;;;;;4993571;28;19953;-93
2023/04/26 07:39:31;;;;;;;;;;;7.70;65.80;;;;;;4987061;28;19929;-88
2023/04/26 07:41:57;;;;;;;;;;;7.60;65.50;;;;;;5009716;28;19920;-89
2023/04/26 07:44:22;;;;;;;;;;;7.50;65.90;;;;;;4997283;28;19956;-90
2023/04/26 07:46:48;;;;;;;;;;;7.60;66.60;;;;;;4993405;28;20340;-87
2023/04/26 07:49:13;;;;;;;;;;;7.60;65.70;;;;;;4998247;28;19918;-84
2023/04/26 07:51:38;;;;;;;;;;;7.80;66.50;;;;;;5000023;28;19913;-89
2023/04/26 07:54:04;;;;;;;;;;;7.90;66.50;;;;;;5002499;28;19921;-89
2023/04/26 07:56:29;;;;;;;;;;;8.00;65.40;;;;;;5011480;28;19925;-89
2023/04/26 07:58:55;;;;;;;;;;;8.20;64.30;;;;;;4991991;28;19934;-88
2023/04/26 08:01:24;;;;;;;;;;;8.30;63.20;;;;;;5018271;28;19901;-88
2023/04/26 08:03:50;;;;;;;;;;;8.30;62.20;;;;;;5035229;28;19940;-89
2023/04/26 08:06:15;;;;;;;;;;;8.40;61.00;;;;;;5021624;28;19925;-90
2023/04/26 08:08:44;;;;;;;;;;;8.40;61.80;;;;;;5012113;28;19910;-89
2023/04/26 08:11:09;;;;;;;;;;;8.50;62.10;;;;;;5011444;28;19913;-90
2023/04/26 08:13:35;;;;;;;;;;;8.50;61.20;;;;;;5002189;28;20298;-89
2023/04/26 08:16:00;;;;;;;;;;;8.60;61.40;;;;;;4997894;28;19910;-90
2023/04/26 08:18:26;;;;;;;;;;;8.60;61.20;;;;;;4997421;28;19916;-89
2023/04/26 08:20:54;;;;;;;;;;;8.70;59.30;;;;;;5011560;28;20008;-89
2023/04/26 08:23:19;;;;;;;;;;;8.60;60.30;;;;;;4996043;28;19933;-90
2023/04/26 08:25:45;;;;;;;;;;;8.60;61.10;;;;;;4995485;28;20364;-85
2023/04/26 08:28:13;;;;;;;;;;;8.60;60.40;;;;;;5016284;28;19917;-91
2023/04/26 08:30:38;;;;;;;;;;;8.80;59.10;;;;;;5013610;28;20295;-90
2023/04/26 08:33:04;;;;;;;;;;;8.80;58.70;;;;;;4989651;28;19994;-92
2023/04/26 08:35:30;;;;;;;;;;;8.90;58.70;;;;;;4991153;28;19925;-89
2023/04/26 08:37:55;;;;;;;;;;;9.00;60.30;;;;;;4992395;28;19914;-87
2023/04/26 08:40:23;;;;;;;;;;;9.20;59.20;;;;;;5008115;28;19918;-90
2023/04/26 08:42:48;;;;;;;;;;;9.20;58.20;;;;;;4991862;28;19914;-88
2023/04/26 08:45:14;;;;;;;;;;;9.30;58.00;;;;;;5001354;28;20008;-89
2023/04/26 08:47:48;;;;;;;;;;;9.40;58.70;;;;;;5014634;28;20299;-88
2023/04/26 08:50:14;;;;;;;;;;;9.50;58.00;;;;;;5000170;28;19925;-91
2023/04/26 08:52:40;;;;;;;;;;;9.30;57.80;;;;;;4991925;28;19956;-90
2023/04/26 08:55:11;;;;;;;;;;;9.20;57.20;;;;;;4993523;28;19914;-90
2023/04/26 08:57:41;;;;;;;;;;;9.30;57.30;;;;;;5000684;28;20490;-88
2023/04/26 09:00:32;;;;;;;;;;;9.30;58.60;;;;;;5004114;28;20094;-91
2023/04/26 09:03:03;;;;;;;;;;;9.40;58.30;;;;;;4989823;28;19957;-91
2023/04/26 09:05:29;;;;;;;;;;;9.40;59.00;;;;;;4992486;28;19924;-90
2023/04/26 09:08:30;;;;;;;;;;;9.40;56.80;;;;;;4990141;28;19914;-91
2023/04/26 09:10:56;;;;;;;;;;;9.30;55.30;;;;;;5006417;28;19913;-87
2023/04/26 09:13:27;;;;;;;;;;;9.10;56.40;;;;;;4991769;28;20279;-88
2023/04/26 09:15:53;;;;;;;;;;;9.20;56.00;;;;;;5020404;28;19987;-84
2023/04/26 09:18:32;;;;;;;;;;;9.20;57.10;;;;;;5000201;28;20358;-88
2023/04/26 09:21:17;;;;;;;;;;;;;;;;;;;;;
2023/04/26 09:23:56;;;;;;;;;;;9.10;57.00;;;;;;4998281;28;19920;-86
2023/04/26 09:26:21;;;;;;;;;;;9.10;57.50;;;;;;4984522;28;20474;-88
2023/04/26 09:28:47;;;;;;;;;;;9.20;57.60;;;;;;4985525;28;19922;-86
2023/04/26 09:31:32;;;;;;;;;;;9.50;55.50;;;;;;5005650;28;20275;-86
2023/04/26 09:34:01;;;;;;;;;;;9.60;54.60;;;;;;4989123;28;20431;-89
2023/04/26 09:36:27;;;;;;;;;;;9.60;55.30;;;;;;4988845;28;20383;-87
2023/04/26 09:39:21;;;;;;;;;;;9.70;54.20;;;;;;4999333;28;19940;-90
2023/04/26 09:41:56;;;;;;;;;;;9.70;55.00;;;;;;5003605;28;20399;-89
2023/04/26 09:44:22;;;;;;;;;;;9.50;55.20;;;;;;5000620;28;19921;-87
2023/04/26 09:47:08;;;;;;;;;;;9.30;55.20;;;;;;5007644;28;19926;-87
2023/04/26 09:49:50;;;;;;;;;;;9.40;56.30;;;;;;5002763;28;20057;-90
2023/04/26 09:52:17;;;;;;;;;;;9.30;56.90;;;;;;5015532;28;19957;-85
2023/04/26 09:54:46;;;;;;;;;;;9.30;55.70;;;;;;5024271;28;19989;-86
2023/04/26 09:57:16;;;;;;;;;;;9.30;55.90;;;;;;5023864;28;19936;-86
2023/04/26 09:59:42;;;;;;;;;;;9.40;55.70;;;;;;4982324;28;19921;-85
2023/04/26 10:02:09;;;;;;;;;;;9.30;56.30;;;;;;4990191;28;19914;-85
2023/04/26 10:04:38;;;;;;;;;;;9.30;56.60;;;;;;4990259;28;19984;-86
2023/04/26 10:07:07;;;;;;;;;;;9.30;56.10;;;;;;5017904;28;19913;-87
2023/04/26 10:09:33;;;;;;;;;;;9.30;56.90;;;;;;4996954;28;19941;-86
2023/04/26 10:12:04;;;;;;;;;;;9.30;57.20;;;;;;5001075;28;19914;-88
2023/04/26 10:14:40;;;;;;;;;;;9.40;56.80;;;;;;5008948;28;20531;-87
2023/04/26 10:17:10;;;;;;;;;;;9.60;55.80;;;;;;5012520;28;19969;-88
2023/04/26 10:19:43;;;;;;;;;;;9.80;56.20;;;;;;5003225;28;20395;-87
2023/04/26 10:22:28;;;;;;;;;;;9.90;54.70;;;;;;4991488;28;19922;-88
2023/04/26 10:24:53;;;;;;;;;;;10.20;54.70;;;;;;4991036;28;19918;-86
2023/04/26 10:27:38;;;;;;;;;;;10.40;55.00;;;;;;5002321;28;19925;-87
2023/04/26 10:30:06;;;;;;;;;;;10.50;52.40;;;;;;4996460;28;19925;-85
2023/04/26 10:32:31;;;;;;;;;;;10.50;54.40;;;;;;4992092;28;19914;-87
2023/04/26 10:35:13;;;;;;;;;;;10.60;54.30;;;;;;5013847;28;19963;-87
2023/04/26 10:38:00;;;;;;;;;;;10.60;53.10;;;;;;4984632;28;20301;-88
2023/04/26 10:40:32;;;;;;;;;;;10.60;52.10;;;;;;4987566;28;19914;-88
2023/04/26 10:43:09;;;;;;;;;;;10.40;53.00;;;;;;4985707;28;20391;-87
2023/04/26 10:45:43;;;;;;;;;;;10.30;54.10;;;;;;4992250;28;19964;-86
2023/04/26 10:48:13;;;;;;;;;;;10.10;53.50;;;;;;4993425;28;19922;-86
2023/04/26 10:50:58;;;;;;;;;;;10.00;55.70;;;;;;5022419;28;19979;-85
2023/04/26 10:53:23;;;;;;;;;;;9.80;56.90;;;;;;4986383;28;19920;-85
2023/04/26 10:55:49;;;;;;;;;;;9.80;52.90;;;;;;4999432;28;19913;-84
2023/04/26 10:58:27;;;;;;;;;;;9.80;53.60;;;;;;5007483;28;20024;-85
2023/04/26 11:01:10;;;;;;;;;;;9.80;52.50;;;;;;5010620;28;19921;-85
2023/04/26 11:03:37;;;;;;;;;;;9.80;53.10;;;;;;5006445;28;19917;-85
2023/04/26 11:06:06;;;;;;;;;;;9.90;53.50;;;;;;5009428;28;19922;-85
2023/04/26 11:08:33;;;;;;;;;;;10.10;51.70;;;;;;4996492;28;20572;-86
2023/04/26 11:11:05;;;;;;;;;;;10.20;51.60;;;;;;5008687;28;19976;-85
2023/04/26 11:13:38;;;;;;;;;;;10.50;51.30;;;;;;5007862;28;19918;-85
2023/04/26 11:16:04;;;;;;;;;;;10.70;50.10;;;;;;4994182;28;19984;-83
2023/04/26 11:18:30;;;;;;;;;;;10.70;49.40;;;;;;5023041;28;19941;-83
2023/04/26 11:20:56;;;;;;;;;;;10.60;51.30;;;;;;5004599;28;20382;-83
2023/04/26 11:23:22;;;;;;;;;;;10.60;50.50;;;;;;5020139;28;19914;-82
2023/04/26 11:25:48;;;;;;;;;;;10.40;50.70;;;;;;4996025;28;19929;-84
2023/04/26 11:28:14;;;;;;;;;;;10.40;50.70;;;;;;5001899;28;19918;-84
2023/04/26 11:30:39;;;;;;;;;;;10.30;51.00;;;;;;5004455;28;19933;-85
2023/04/26 11:33:05;;;;;;;;;;;10.50;51.00;;;;;;5013306;28;19921;-85
2023/04/26 11:35:34;;;;;;;;;;;10.50;50.10;;;;;;5016294;28;20328;-86
2023/04/26 11:38:02;;;;;;;;;;;10.30;51.60;;;;;;4992148;28;19958;-85
2023/04/26 11:40:29;;;;;;;;;;;10.30;51.40;;;;;;5002573;28;19913;-85
2023/04/26 11:42:57;;;;;;;;;;;10.30;52.20;;;;;;5030861;23;20003;-87
2023/04/26 11:45:23;;;;;;;;;;;10.40;51.00;;;;;;5004927;28;19917;-88
2023/04/26 11:47:49;;;;;;;;;;;10.50;50.90;;;;;;5010583;28;19914;-90
2023/04/26 11:50:14;;;;;;;;;;;10.50;52.30;;;;;;5013763;28;19928;-87
2023/04/26 11:52:40;;;;;;;;;;;10.70;51.50;;;;;;5024177;28;19988;-88
2023/04/26 11:55:06;;;;;;;;;;;11.00;50.40;;;;;;5007271;28;20225;-87
2023/04/26 11:57:32;;;;;;;;;;;11.10;49.10;;;;;;5013137;28;19909;-90
2023/04/26 12:00:11;;;;;;;;;;;11.30;50.20;;;;;;5029910;28;19909;-88
2023/04/26 12:02:43;;;;;;;;;;;11.30;49.20;;;;;;5014143;28;19920;-89
2023/04/26 12:06:03;;;;;;;;;;;11.30;49.60;;;;;;5008932;28;19910;-90
2023/04/26 12:08:31;;;;;;;;;;;11.40;48.60;;;;;;4993937;28;19910;-87
2023/04/26 12:11:00;;;;;;;;;;;11.60;45.80;;;;;;5007719;28;20326;-87
2023/04/26 12:13:33;;;;;;;;;;;11.60;47.60;;;;;;5009930;28;19920;-89
2023/04/26 12:15:59;;;;;;;;;;;11.60;48.50;;;;;;5009380;28;19909;-89
2023/04/26 12:18:31;;;;;;;;;;;11.50;48.00;;;;;;5005240;28;20398;-89
2023/04/26 12:20:58;;;;;;;;;;;11.60;46.80;;;;;;5013217;28;20469;-87
2023/04/26 12:23:24;;;;;;;;;;;11.70;45.60;;;;;;5013343;28;19914;-88
2023/04/26 12:25:53;;;;;;;;;;;11.70;46.00;;;;;;5012057;28;19914;-89
2023/04/26 12:28:19;;;;;;;;;;;11.70;47.00;;;;;;5031381;28;19972;-88
2023/04/26 12:30:45;;;;;;;;;;;11.40;47.50;;;;;;5007908;28;19963;-87
2023/04/26 12:33:11;;;;;;;;;;;11.30;46.50;;;;;;5006816;28;19971;-87
2023/04/26 12:35:36;;;;;;;;;;;11.50;45.60;;;;;;5003786;28;19913;-86
2023/04/26 12:38:02;;;;;;;;;;;11.40;47.30;;;;;;5003771;28;20315;-87
2023/04/26 12:40:28;;;;;;;;;;;11.50;46.70;;;;;;5004108;28;19917;-87
2023/04/26 12:42:54;;;;;;;;;;;11.60;45.30;;;;;;5007995;28;19925;-86
2023/04/26 12:45:21;;;;;;;;;;;11.80;45.80;;;;;;5004822;28;20715;-87
2023/04/26 12:47:46;;;;;;;;;;;11.70;48.20;;;;;;5006811;28;20016;-86
2023/04/26 12:50:12;;;;;;;;;;;12.00;46.20;;;;;;5004122;28;20012;-88
2023/04/26 12:52:39;;;;;;;;;;;12.10;43.80;;;;;;5010580;28;19936;-88
2023/04/26 12:55:05;;;;;;;;;;;12.00;44.70;;;;;;5012762;28;19910;-85
2023/04/26 12:57:31;;;;;;;;;;;12.20;44.50;;;;;;5022393;28;21356;-86
2023/04/26 12:59:57;;;;;;;;;;;12.30;44.70;;;;;;5019076;28;19964;-88
2023/04/26 13:02:23;;;;;;;;;;;12.30;46.20;;;;;;5010019;28;19925;-88
2023/04/26 13:04:49;;;;;;;;;;;12.20;44.90;;;;;;5012339;28;19918;-87
2023/04/26 13:07:15;;;;;;;;;;;12.30;43.70;;;;;;5006347;28;19960;-87
2023/04/26 13:09:44;;;;;;;;;;;12.60;44.80;;;;;;5016704;28;20360;-87
2023/04/26 13:12:13;;;;;;;;;;;12.40;44.30;;;;;;5006745;28;19956;-88
2023/04/26 13:14:39;;;;;;;;;;;12.50;43.70;;;;;;5001092;28;20327;-87
2023/04/26 13:17:08;;;;;;;;;;;12.50;43.50;;;;;;5012454;28;20328;-87
2023/04/26 13:19:36;;;;;;;;;;;12.30;42.90;;;;;;5005342;28;19977;-85
2023/04/26 13:22:03;;;;;;;;;;;12.20;44.30;;;;;;5024212;28;19921;-86
2023/04/26 13:24:29;;;;;;;;;;;11.80;45.20;;;;;;5013233;28;20417;-86
2023/04/26 13:26:55;;;;;;;;;;;11.60;47.70;;;;;;5007071;28;19921;-86
2023/04/26 13:29:21;;;;;;;;;;;11.40;45.10;;;;;;5005689;28;19956;-88
2023/04/26 13:31:47;;;;;;;;;;;11.50;45.20;;;;;;5011387;28;19940;-86
2023/04/26 13:34:12;;;;;;;;;;;11.40;45.60;;;;;;5008290;28;20011;-86
2023/04/26 13:36:38;;;;;;;;;;;11.40;46.00;;;;;;5010583;28;19936;-86
2023/04/26 13:39:05;;;;;;;;;;;11.50;45.70;;;;;;5007921;28;20283;-87
2023/04/26 13:41:32;;;;;;;;;;;11.60;44.70;;;;;;5012483;28;19917;-88
2023/04/26 13:43:58;;;;;;;;;;;11.80;44.70;;;;;;5031886;28;19918;-86
2023/04/26 13:46:23;;;;;;;;;;;11.60;45.60;;;;;;5026559;28;19914;-86
2023/04/26 13:48:49;;;;;;;;;;;11.60;46.20;;;;;;5007019;28;19921;-87
2023/04/26 13:51:14;;;;;;;;;;;11.80;44.80;;;;;;5016858;28;19953;-87
2023/04/26 13:53:41;;;;;;;;;;;11.80;46.50;;;;;;5029424;28;19917;-89
2023/04/26 13:56:08;;;;;;;;;;;11.60;47.40;;;;;;5020291;28;19917;-87
2023/04/26 13:58:34;;;;;;;;;;;11.60;47.50;;;;;;5003870;28;19929;-88
2023/04/26 14:01:01;;;;;;;;;;;11.40;47.80;;;;;;5003057;28;19917;-87
2023/04/26 14:03:26;;;;;;;;;;;11.30;47.60;;;;;;5005046;28;19939;-87
2023/04/26 14:05:52;;;;;;;;;;;11.30;48.60;;;;;;5007371;28;19971;-87
2023/04/26 14:08:18;;;;;;;;;;;11.40;46.10;;;;;;4994890;28;20360;-86
2023/04/26 14:10:49;;;;;;;;;;;11.30;45.80;;;;;;5010647;28;20371;-87
2023/04/26 14:13:15;;;;;;;;;;;11.20;48.00;;;;;;5003941;28;19921;-87
2023/04/26 14:15:48;;;;;;;;;;;11.30;47.40;;;;;;5003562;28;20329;-88
2023/04/26 14:18:13;;;;;;;;;;;11.40;47.80;;;;;;5008930;28;20008;-86
2023/04/26 14:20:39;;;;;;;;;;;11.40;46.50;;;;;;5004262;28;20210;-88
2023/04/26 14:23:04;;;;;;;;;;;11.20;46.20;;;;;;5007776;28;20445;-87
2023/04/26 14:25:30;;;;;;;;;;;11.30;46.20;;;;;;5006239;28;20314;-88
2023/04/26 14:27:55;;;;;;;;;;;11.10;46.10;;;;;;5013201;28;19959;-88
2023/04/26 14:30:21;;;;;;;;;;;11.20;46.00;;;;;;5007432;28;19914;-88